Westerdam — PINX — position and weather

sailwx.info

Track history (hours):
 
Tides and Currents Weather Stations Pressure Air Temp Water Temp Dewpoint Dewpoint Depression Visibility Wind Speed Wind Dir Waves Ship Positions

Westerdam

Operator: Holland America Line

Last reported at 2018-Oct-23 10:55 UTC. Time now 2018-Oct-24 05:03 UTC.
Position N 38°38' E 121°27'.

Type: Passenger vessel. MMSI: 244128000.

Date/timePositionNaut miles runAvg speedWind from/ knotsBaromVisibWave heightAir tempDewpointWater temp
2018-Oct-23 10:55N 38°38' E 121°27'717.4
2018-Oct-23 10:30N 38°42' E 121°35'818.1
2018-Oct-23 10:03N 38°47' E 121°42'118.0
2018-Oct-23 10:00N 38°48' E 121°43'8 0.9
2018-Oct-23 01:00N 38°54' E 121°36'0 0.0 330 / 201018.910.8 16.5 0.216.2
2018-Oct-23 00:00N 38°54' E 121°36'9 2.9 330 / 131018.610.8 16.0 3.416.2
2018-Oct-22 20:55N 38°52' E 121°47'811.9
2018-Oct-22 20:14N 38°46' E 121°53'613.4
2018-Oct-22 19:47N 38°41' E 121°59'1215.8
2018-Oct-22 19:00N 38°30' E 122°06'28315.7 280 / 261016.110.8 15.8 9.217.2
2018-Oct-22 01:00N 34°12' E 124°30'2120.6 110 / 121021.610.8 18.010.118.2
2018-Oct-22 00:00N 33°54' E 124°42'1919.2 080 / 121021.610.8 17.910.818.2
2018-Oct-21 23:00N 33°42' E 125°00'   080 / 141020.810.8 17.812.018.2
2018-Oct-18 09:00N 33°48' E 131°30'121 8.1 330 / 31016.610.8 19.010.523.8
2018-Oct-17 18:00N 32°48' E 133°36'2121.0 050 / 151013.310.8 20.511.423.8
2018-Oct-17 17:00N 32°54' E 134°00'7319.0 050 / 171013.410.8 20.511.423.8
2018-Oct-17 13:10N 33°53' E 134°51'220.0
2018-Oct-17 13:03N 33°55' E 134°52'120.0
2018-Oct-17 13:00N 33°56' E 134°52'1019.8
2018-Oct-17 12:30N 34°05' E 134°55'817.2
2018-Oct-17 12:03N 34°13' E 134°57'0 9.7
2018-Oct-17 12:00N 34°13' E 134°58'714.9
2018-Oct-17 11:30N 34°20' E 134°60'919.9
2018-Oct-17 11:03N 34°27' E 135°07'120.4
2018-Oct-17 11:00N 34°28' E 135°08'919.0
2018-Oct-17 10:30N 34°34' E 135°16'715.9
2018-Oct-17 10:03N 34°38' E 135°24'111.0
2018-Oct-17 10:00N 34°39' E 135°24'2 3.0
2018-Oct-17 09:27N 34°39' E 135°26'0 0.0
2018-Oct-17 09:03N 34°39' E 135°26'0 0.0
2018-Oct-17 08:57N 34°39' E 135°26'0 0.0
2018-Oct-17 08:27N 34°39' E 135°26'0 0.0
2018-Oct-17 07:57N 34°39' E 135°26'0 0.0
2018-Oct-17 07:15N 34°39' E 135°26'0 0.0
2018-Oct-17 07:03N 34°39' E 135°26'0 0.0
2018-Oct-17 06:57N 34°39' E 135°26'0 0.0
2018-Oct-17 06:27N 34°39' E 135°26'0 0.0
2018-Oct-17 05:57N 34°39' E 135°26'0 0.0
2018-Oct-17 05:27N 34°39' E 135°26'0 0.0
2018-Oct-17 05:03N 34°39' E 135°26'0 0.0
2018-Oct-17 04:51N 34°39' E 135°26'0 0.0
2018-Oct-17 04:21N 34°39' E 135°26'0 0.0
2018-Oct-17 04:03N 34°39' E 135°26'0 0.0
2018-Oct-17 03:57N 34°39' E 135°26'0 0.0
2018-Oct-17 03:27N 34°39' E 135°26'0 0.0
2018-Oct-17 02:57N 34°39' E 135°26'0 0.0
2018-Oct-17 02:27N 34°39' E 135°26'0 0.0
2018-Oct-17 02:03N 34°39' E 135°26'0 0.0
2018-Oct-17 01:51N 34°39' E 135°26'0 0.0
2018-Oct-17 01:27N 34°39' E 135°26'0 0.0
2018-Oct-17 01:03N 34°39' E 135°26'0 0.0
2018-Oct-17 00:57N 34°39' E 135°26'0 0.0
2018-Oct-17 00:27N 34°39' E 135°26'0 0.0
2018-Oct-17 00:03N 34°39' E 135°26'0 0.1
2018-Oct-16 23:57N 34°39' E 135°26'0 0.0
2018-Oct-16 23:27N 34°39' E 135°26'0 0.0
2018-Oct-16 23:03N 34°39' E 135°26'0 0.0
2018-Oct-16 22:57N 34°39' E 135°26'1 1.4
2018-Oct-16 22:30N 34°39' E 135°25'3 7.8
2018-Oct-16 22:03N 34°37' E 135°22'0 5.5
2018-Oct-16 22:00N 34°37' E 135°21'5 9.6
2018-Oct-16 21:30N 34°34' E 135°17'613.8
2018-Oct-16 21:03N 34°30' E 135°11'113.4
2018-Oct-16 21:01N 34°29' E 135°11'815.2
2018-Oct-16 20:30N 34°23' E 135°05'716.5
2018-Oct-16 20:03N 34°17' E 134°60'116.2
2018-Oct-16 20:01N 34°17' E 134°60'714.6
2018-Oct-16 19:30N 34°09' E 134°60'716.7
2018-Oct-16 19:03N 34°02' E 134°58'117.9
2018-Oct-16 19:00N 34°01' E 134°58'917.3
2018-Oct-16 18:30N 33°53' E 134°59'817.8
2018-Oct-16 18:03N 33°45' E 135°04'118.9
2018-Oct-16 18:00N 33°45' E 135°05'1218.6
2018-Oct-16 17:20N 33°35' E 135°13'230 8.5
2018-Oct-15 14:21N 34°59' E 139°32'411.4
2018-Oct-15 13:59N 35°01' E 139°36'612.2
2018-Oct-15 13:31N 35°05' E 139°41'510.8
2018-Oct-15 13:03N 35°09' E 139°44'111.5
2018-Oct-15 13:00N 35°10' E 139°44'611.7
2018-Oct-15 12:30N 35°15' E 139°46'613.4
2018-Oct-15 12:03N 35°20' E 139°42'114.3
2018-Oct-15 12:00N 35°21' E 139°42'611.8
2018-Oct-15 11:30N 35°27' E 139°41'2 3.9
2018-Oct-15 11:03N 35°27' E 139°39'0 0.5
2018-Oct-15 11:00N 35°27' E 139°39'0 0.0
2018-Oct-15 10:30N 35°27' E 139°39'0 0.0
2018-Oct-15 10:01N 35°27' E 139°39'0 0.0
2018-Oct-15 09:28N 35°27' E 139°39'0 0.0
2018-Oct-15 09:01N 35°27' E 139°39'0 0.0
2018-Oct-15 08:31N 35°27' E 139°39'0 0.0
2018-Oct-15 08:01N 35°27' E 139°39'0 0.0
2018-Oct-15 07:30N 35°27' E 139°39'0 0.0
2018-Oct-15 07:03N 35°27' E 139°39'0 0.0
2018-Oct-15 06:58N 35°27' E 139°39'0 0.0
2018-Oct-15 06:28N 35°27' E 139°39'0 0.0
2018-Oct-15 06:03N 35°27' E 139°39'0 0.1
2018-Oct-15 06:00N 35°27' E 139°39'0 0.0
2018-Oct-15 05:28N 35°27' E 139°39'0 0.0
2018-Oct-15 05:01N 35°27' E 139°39'0 0.0
2018-Oct-15 04:58N 35°27' E 139°39'0 0.0
2018-Oct-15 04:31N 35°27' E 139°39'0 0.0
2018-Oct-15 04:01N 35°27' E 139°39'0 0.0
2018-Oct-15 03:58N 35°27' E 139°39'0 0.0
2018-Oct-15 03:31N 35°27' E 139°39'0 0.0
2018-Oct-15 03:04N 35°27' E 139°39'0 0.0
2018-Oct-15 03:01N 35°27' E 139°39'0 0.0
2018-Oct-15 02:28N 35°27' E 139°39'0 0.0
2018-Oct-15 02:04N 35°27' E 139°39'0 0.0
2018-Oct-15 02:01N 35°27' E 139°39'4224.2
2018-Oct-15 02:00N 35°24' E 139°36'4 8.0 100 / 81019.810.8 20.912.822.1
2018-Oct-15 01:31N 35°27' E 139°39'0 0.0
2018-Oct-15 01:03N 35°27' E 139°39'0 0.0
2018-Oct-15 01:00N 35°27' E 139°39'0 0.0
2018-Oct-15 00:31N 35°27' E 139°39'0 0.0
2018-Oct-15 00:04N 35°27' E 139°39'0 0.0
2018-Oct-15 00:01N 35°27' E 139°39'0 0.0
2018-Oct-14 23:30N 35°27' E 139°39'0 0.0
2018-Oct-14 23:04N 35°27' E 139°39'0 0.0
2018-Oct-14 22:57N 35°27' E 139°39'0 0.0
2018-Oct-14 22:30N 35°27' E 139°39'0 0.0
2018-Oct-14 22:04N 35°27' E 139°39'0 0.0
2018-Oct-14 22:00N 35°27' E 139°39'0 0.0
2018-Oct-14 21:30N 35°27' E 139°39'0 0.5
2018-Oct-14 21:03N 35°27' E 139°39'0 3.9
2018-Oct-14 21:00N 35°27' E 139°39'3 6.3
2018-Oct-14 20:30N 35°26' E 139°43'3 7.3
2018-Oct-14 20:03N 35°23' E 139°43'112.5
2018-Oct-14 20:00N 35°22' E 139°43'612.1
2018-Oct-14 19:30N 35°17' E 139°46'811.1
2018-Oct-14 18:47N 35°09' E 139°47'29014.6
2018-Oct-13 23:00N 39°30' E 142°24'8320.7 100 / 141023.810.8 15.8 9.519.4
2018-Oct-13 19:00N 40°48' E 141°48'   130 / 171024.010.8 16.0 9.619.4
Track history (hours):
 
Tides and Currents Weather Stations Pressure Air Temp Water Temp Dewpoint Dewpoint Depression Visibility Wind Speed Wind Dir Waves Ship Positions

Westerdam

Operator: Holland America Line

Last reported at 2018-Oct-23 10:55 UTC. Time now 2018-Oct-24 05:03 UTC.
Position N 38°38' E 121°27'.

Type: Passenger vessel. MMSI: 244128000.

Date/timePositionNaut miles runAvg speedWind from/ knotsBaromVisibWave heightAir tempDewpointWater temp
2018-Oct-23 10:55N 38°38' E 121°27'717.4
2018-Oct-23 10:30N 38°42' E 121°35'818.1
2018-Oct-23 10:03N 38°47' E 121°42'118.0
2018-Oct-23 10:00N 38°48' E 121°43'8 0.9
2018-Oct-23 01:00N 38°54' E 121°36'0 0.0 330 / 201018.910.8 16.5 0.216.2
2018-Oct-23 00:00N 38°54' E 121°36'9 2.9 330 / 131018.610.8 16.0 3.416.2
2018-Oct-22 20:55N 38°52' E 121°47'811.9
2018-Oct-22 20:14N 38°46' E 121°53'613.4
2018-Oct-22 19:47N 38°41' E 121°59'1215.8
2018-Oct-22 19:00N 38°30' E 122°06'28315.7 280 / 261016.110.8 15.8 9.217.2
2018-Oct-22 01:00N 34°12' E 124°30'2120.6 110 / 121021.610.8 18.010.118.2
2018-Oct-22 00:00N 33°54' E 124°42'1919.2 080 / 121021.610.8 17.910.818.2
2018-Oct-21 23:00N 33°42' E 125°00'   080 / 141020.810.8 17.812.018.2
2018-Oct-18 09:00N 33°48' E 131°30'121 8.1 330 / 31016.610.8 19.010.523.8
2018-Oct-17 18:00N 32°48' E 133°36'2121.0 050 / 151013.310.8 20.511.423.8
2018-Oct-17 17:00N 32°54' E 134°00'7319.0 050 / 171013.410.8 20.511.423.8
2018-Oct-17 13:10N 33°53' E 134°51'220.0
2018-Oct-17 13:03N 33°55' E 134°52'120.0
2018-Oct-17 13:00N 33°56' E 134°52'1019.8
2018-Oct-17 12:30N 34°05' E 134°55'817.2
2018-Oct-17 12:03N 34°13' E 134°57'0 9.7
2018-Oct-17 12:00N 34°13' E 134°58'714.9
2018-Oct-17 11:30N 34°20' E 134°60'919.9
2018-Oct-17 11:03N 34°27' E 135°07'120.4
2018-Oct-17 11:00N 34°28' E 135°08'919.0
2018-Oct-17 10:30N 34°34' E 135°16'715.9
2018-Oct-17 10:03N 34°38' E 135°24'111.0
2018-Oct-17 10:00N 34°39' E 135°24'2 3.0
2018-Oct-17 09:27N 34°39' E 135°26'0 0.0
2018-Oct-17 09:03N 34°39' E 135°26'0 0.0
2018-Oct-17 08:57N 34°39' E 135°26'0 0.0
2018-Oct-17 08:27N 34°39' E 135°26'0 0.0
2018-Oct-17 07:57N 34°39' E 135°26'0 0.0
2018-Oct-17 07:15N 34°39' E 135°26'0 0.0
2018-Oct-17 07:03N 34°39' E 135°26'0 0.0
2018-Oct-17 06:57N 34°39' E 135°26'0 0.0
2018-Oct-17 06:27N 34°39' E 135°26'0 0.0
2018-Oct-17 05:57N 34°39' E 135°26'0 0.0
2018-Oct-17 05:27N 34°39' E 135°26'0 0.0
2018-Oct-17 05:03N 34°39' E 135°26'0 0.0
2018-Oct-17 04:51N 34°39' E 135°26'0 0.0
2018-Oct-17 04:21N 34°39' E 135°26'0 0.0
2018-Oct-17 04:03N 34°39' E 135°26'0 0.0
2018-Oct-17 03:57N 34°39' E 135°26'0 0.0
2018-Oct-17 03:27N 34°39' E 135°26'0 0.0
2018-Oct-17 02:57N 34°39' E 135°26'0 0.0
2018-Oct-17 02:27N 34°39' E 135°26'0 0.0
2018-Oct-17 02:03N 34°39' E 135°26'0 0.0
2018-Oct-17 01:51N 34°39' E 135°26'0 0.0
2018-Oct-17 01:27N 34°39' E 135°26'0 0.0
2018-Oct-17 01:03N 34°39' E 135°26'0 0.0
2018-Oct-17 00:57N 34°39' E 135°26'0 0.0
2018-Oct-17 00:27N 34°39' E 135°26'0 0.0
2018-Oct-17 00:03N 34°39' E 135°26'0 0.1
2018-Oct-16 23:57N 34°39' E 135°26'0 0.0
2018-Oct-16 23:27N 34°39' E 135°26'0 0.0
2018-Oct-16 23:03N 34°39' E 135°26'0 0.0
2018-Oct-16 22:57N 34°39' E 135°26'1 1.4
2018-Oct-16 22:30N 34°39' E 135°25'3 7.8
2018-Oct-16 22:03N 34°37' E 135°22'0 5.5
2018-Oct-16 22:00N 34°37' E 135°21'5 9.6
2018-Oct-16 21:30N 34°34' E 135°17'613.8
2018-Oct-16 21:03N 34°30' E 135°11'113.4
2018-Oct-16 21:01N 34°29' E 135°11'815.2
2018-Oct-16 20:30N 34°23' E 135°05'716.5
2018-Oct-16 20:03N 34°17' E 134°60'116.2
2018-Oct-16 20:01N 34°17' E 134°60'714.6
2018-Oct-16 19:30N 34°09' E 134°60'716.7
2018-Oct-16 19:03N 34°02' E 134°58'117.9
2018-Oct-16 19:00N 34°01' E 134°58'917.3
2018-Oct-16 18:30N 33°53' E 134°59'817.8
2018-Oct-16 18:03N 33°45' E 135°04'118.9
2018-Oct-16 18:00N 33°45' E 135°05'1218.6
2018-Oct-16 17:20N 33°35' E 135°13'230 8.5
2018-Oct-15 14:21N 34°59' E 139°32'411.4
2018-Oct-15 13:59N 35°01' E 139°36'612.2
2018-Oct-15 13:31N 35°05' E 139°41'510.8
2018-Oct-15 13:03N 35°09' E 139°44'111.5
2018-Oct-15 13:00N 35°10' E 139°44'611.7
2018-Oct-15 12:30N 35°15' E 139°46'613.4
2018-Oct-15 12:03N 35°20' E 139°42'114.3
2018-Oct-15 12:00N 35°21' E 139°42'611.8
2018-Oct-15 11:30N 35°27' E 139°41'2 3.9
2018-Oct-15 11:03N 35°27' E 139°39'0 0.5
2018-Oct-15 11:00N 35°27' E 139°39'0 0.0
2018-Oct-15 10:30N 35°27' E 139°39'0 0.0
2018-Oct-15 10:01N 35°27' E 139°39'0 0.0
2018-Oct-15 09:28N 35°27' E 139°39'0 0.0
2018-Oct-15 09:01N 35°27' E 139°39'0 0.0
2018-Oct-15 08:31N 35°27' E 139°39'0 0.0
2018-Oct-15 08:01N 35°27' E 139°39'0 0.0
2018-Oct-15 07:30N 35°27' E 139°39'0 0.0
2018-Oct-15 07:03N 35°27' E 139°39'0 0.0
2018-Oct-15 06:58N 35°27' E 139°39'0 0.0
2018-Oct-15 06:28N 35°27' E 139°39'0 0.0
2018-Oct-15 06:03N 35°27' E 139°39'0 0.1
2018-Oct-15 06:00N 35°27' E 139°39'0 0.0
2018-Oct-15 05:28N 35°27' E 139°39'0 0.0
2018-Oct-15 05:01N 35°27' E 139°39'0 0.0
2018-Oct-15 04:58N 35°27' E 139°39'0 0.0
2018-Oct-15 04:31N 35°27' E 139°39'0 0.0
2018-Oct-15 04:01N 35°27' E 139°39'0 0.0
2018-Oct-15 03:58N 35°27' E 139°39'0 0.0
2018-Oct-15 03:31N 35°27' E 139°39'0 0.0
2018-Oct-15 03:04N 35°27' E 139°39'0 0.0
2018-Oct-15 03:01N 35°27' E 139°39'0 0.0
2018-Oct-15 02:28N 35°27' E 139°39'0 0.0
2018-Oct-15 02:04N 35°27' E 139°39'0 0.0
2018-Oct-15 02:01N 35°27' E 139°39'4224.2
2018-Oct-15 02:00N 35°24' E 139°36'4 8.0 100 / 81019.810.8 20.912.822.1
2018-Oct-15 01:31N 35°27' E 139°39'0 0.0
2018-Oct-15 01:03N 35°27' E 139°39'0 0.0
2018-Oct-15 01:00N 35°27' E 139°39'0 0.0
2018-Oct-15 00:31N 35°27' E 139°39'0 0.0
2018-Oct-15 00:04N 35°27' E 139°39'0 0.0
2018-Oct-15 00:01N 35°27' E 139°39'0 0.0
2018-Oct-14 23:30N 35°27' E 139°39'0 0.0
2018-Oct-14 23:04N 35°27' E 139°39'0 0.0
2018-Oct-14 22:57N 35°27' E 139°39'0 0.0
2018-Oct-14 22:30N 35°27' E 139°39'0 0.0
2018-Oct-14 22:04N 35°27' E 139°39'0 0.0
2018-Oct-14 22:00N 35°27' E 139°39'0 0.0
2018-Oct-14 21:30N 35°27' E 139°39'0 0.5
2018-Oct-14 21:03N 35°27' E 139°39'0 3.9
2018-Oct-14 21:00N 35°27' E 139°39'3 6.3
2018-Oct-14 20:30N 35°26' E 139°43'3 7.3
2018-Oct-14 20:03N 35°23' E 139°43'112.5
2018-Oct-14 20:00N 35°22' E 139°43'612.1
2018-Oct-14 19:30N 35°17' E 139°46'811.1
2018-Oct-14 18:47N 35°09' E 139°47'29014.6
2018-Oct-13 23:00N 39°30' E 142°24'8320.7 100 / 141023.810.8 15.8 9.519.4
2018-Oct-13 19:00N 40°48' E 141°48'   130 / 171024.010.8 16.0 9.619.4

Dump ship's entire track history